Time;durP1;ratioP1;P1;durP2;ratioP2;P2;SDS_P1;SDS_P2;PMS_P1;PMS_P2;Temp;Humidity;BMP_temperature;BMP_pressure;BME280_temperature;BME280_humidity;BME280_pressure;Samples;Min_cycle;Max_cycle;Signal;HPM_P1;HPM_P2
2020/12/29 00:01:35;;;;;;;24.30;16.97;;;4.20;99.90;;;;;;5039983;28;20210;-80
2020/12/29 00:04:02;;;;;;;21.87;16.80;;;4.20;99.90;;;;;;5044095;28;20220;-87
2020/12/29 00:06:28;;;;;;;21.13;15.70;;;4.20;99.90;;;;;;5043557;28;20198;-86
2020/12/29 00:08:55;;;;;;;21.93;16.63;;;4.20;99.90;;;;;;5041400;28;20731;-81
2020/12/29 00:11:22;;;;;;;21.43;16.10;;;4.20;99.90;;;;;;5041229;28;20209;-80
2020/12/29 00:13:48;;;;;;;21.47;16.60;;;4.20;99.90;;;;;;5044350;28;20229;-87
2020/12/29 00:16:15;;;;;;;25.83;17.77;;;4.20;99.90;;;;;;5043547;28;20205;-86
2020/12/29 00:18:41;;;;;;;25.43;17.47;;;4.20;99.90;;;;;;5042673;28;20214;-81
2020/12/29 00:21:07;;;;;;;20.43;15.87;;;4.20;99.90;;;;;;5042317;28;20213;-81
2020/12/29 00:23:33;;;;;;;21.67;16.90;;;4.20;99.90;;;;;;5043966;28;20198;-83
2020/12/29 00:26:00;;;;;;;22.80;16.07;;;4.20;99.90;;;;;;5045636;28;20210;-84
2020/12/29 00:28:27;;;;;;;27.03;18.00;;;4.20;99.90;;;;;;5042252;28;20247;-82
2020/12/29 00:30:53;;;;;;;26.10;16.40;;;4.20;99.90;;;;;;5041192;28;20271;-81
2020/12/29 00:33:19;;;;;;;21.23;16.93;;;4.20;99.90;;;;;;5041040;28;20218;-82
2020/12/29 00:35:45;;;;;;;23.47;16.40;;;4.20;99.90;;;;;;5040585;28;20214;-81
2020/12/29 00:38:12;;;;;;;22.20;16.20;;;4.20;99.90;;;;;;5041155;28;20198;-80
2020/12/29 00:40:38;;;;;;;18.33;14.37;;;4.20;99.90;;;;;;5041170;28;20194;-78
2020/12/29 00:43:05;;;;;;;23.43;16.70;;;4.20;99.90;;;;;;5039825;28;20205;-78
2020/12/29 00:45:31;;;;;;;23.33;16.00;;;4.20;99.90;;;;;;5042271;28;20269;-79
2020/12/29 00:47:58;;;;;;;21.03;16.50;;;4.10;99.90;;;;;;5040026;28;20201;-81
2020/12/29 00:50:24;;;;;;;19.97;15.53;;;4.20;99.90;;;;;;5040505;28;20201;-79
2020/12/29 00:52:52;;;;;;;22.90;17.40;;;4.20;99.90;;;;;;5032739;28;20245;-79
2020/12/29 00:55:18;;;;;;;24.47;16.63;;;4.20;99.90;;;;;;5021017;28;20517;-77
2020/12/29 00:57:44;;;;;;;20.53;15.47;;;4.20;99.90;;;;;;5020533;28;20205;-82
2020/12/29 01:00:11;;;;;;;18.97;15.57;;;4.20;99.90;;;;;;5021224;28;20257;-82
2020/12/29 01:02:38;;;;;;;19.10;14.20;;;4.20;99.90;;;;;;5021562;28;20194;-79
2020/12/29 01:05:04;;;;;;;22.47;17.17;;;4.20;99.90;;;;;;5020898;28;20222;-81
2020/12/29 01:07:30;;;;;;;23.00;15.87;;;4.20;99.90;;;;;;5022075;28;20199;-79
2020/12/29 01:09:56;;;;;;;22.33;16.17;;;4.20;99.90;;;;;;5021901;28;20195;-78
2020/12/29 01:12:22;;;;;;;22.70;16.63;;;4.20;99.90;;;;;;5020465;28;20301;-79
2020/12/29 01:14:49;;;;;;;21.63;16.57;;;4.20;99.90;;;;;;5021665;28;20635;-78
2020/12/29 01:17:16;;;;;;;22.57;17.70;;;4.20;99.90;;;;;;5021974;28;20203;-80
2020/12/29 01:19:42;;;;;;;20.80;15.60;;;4.20;99.90;;;;;;5021563;28;20213;-83
2020/12/29 01:22:08;;;;;;;23.73;17.30;;;4.20;99.90;;;;;;5035954;28;20214;-80
2020/12/29 01:24:35;;;;;;;24.50;17.53;;;4.20;99.90;;;;;;5044277;28;20332;-82
2020/12/29 01:27:01;;;;;;;21.17;16.00;;;4.20;99.90;;;;;;5043708;28;20201;-81
2020/12/29 01:29:27;;;;;;;24.03;18.13;;;4.20;99.90;;;;;;5060576;28;20205;-83
2020/12/29 01:31:54;;;;;;;22.07;16.27;;;4.20;99.90;;;;;;5086522;28;20205;-86
2020/12/29 01:34:21;;;;;;;18.70;15.20;;;4.20;99.90;;;;;;5086459;28;20196;-82
2020/12/29 01:36:47;;;;;;;24.07;17.37;;;4.20;99.90;;;;;;5086546;28;20222;-80
2020/12/29 01:39:13;;;;;;;21.77;16.00;;;4.20;99.90;;;;;;5087033;28;20247;-80
2020/12/29 01:41:40;;;;;;;20.03;16.33;;;4.20;99.90;;;;;;5087571;28;20211;-84
2020/12/29 01:44:14;;;;;;;24.23;16.77;;;4.20;99.90;;;;;;5084422;28;20275;-80
2020/12/29 01:46:42;;;;;;;23.17;17.60;;;4.20;99.90;;;;;;5082389;28;20663;-79
2020/12/29 01:49:09;;;;;;;19.30;16.77;;;4.20;99.90;;;;;;5087394;28;20212;-81
2020/12/29 01:51:37;;;;;;;24.50;18.27;;;4.20;99.90;;;;;;5086493;28;20197;-85
2020/12/29 01:54:04;;;;;;;23.03;17.33;;;4.20;99.90;;;;;;5104937;28;20247;-83
2020/12/29 01:56:32;;;;;;;25.40;19.23;;;4.20;99.90;;;;;;5106603;28;20206;-80
2020/12/29 01:58:59;;;;;;;22.40;16.03;;;4.20;99.90;;;;;;5105127;28;20204;-80
2020/12/29 02:01:25;;;;;;;20.03;15.90;;;4.20;99.90;;;;;;5105710;28;20249;-86
2020/12/29 02:03:52;;;;;;;17.83;14.77;;;4.20;99.90;;;;;;5106380;28;20227;-79
2020/12/29 02:06:20;;;;;;;18.63;14.60;;;4.20;99.90;;;;;;5105615;28;20191;-79
2020/12/29 02:08:52;;;;;;;21.93;18.07;;;4.20;99.90;;;;;;5105319;28;20287;-84
2020/12/29 02:11:18;;;;;;;25.07;18.63;;;4.30;99.90;;;;;;5105747;28;20184;-85
2020/12/29 02:13:44;;;;;;;20.63;16.60;;;4.20;99.90;;;;;;5105561;28;20220;-80
2020/12/29 02:16:11;;;;;;;28.03;19.37;;;4.30;99.90;;;;;;5105530;28;20246;-84
2020/12/29 02:18:37;;;;;;;25.43;18.73;;;4.30;99.90;;;;;;5106225;28;20257;-85
2020/12/29 02:21:03;;;;;;;20.73;17.03;;;4.30;99.90;;;;;;5109451;28;20207;-87
2020/12/29 02:23:30;;;;;;;23.20;18.23;;;4.30;99.90;;;;;;5109699;28;20234;-85
2020/12/29 02:25:57;;;;;;;24.03;17.27;;;4.20;99.90;;;;;;5108549;28;20204;-79
2020/12/29 02:28:23;;;;;;;23.17;18.77;;;4.30;99.90;;;;;;5108410;28;20264;-85
2020/12/29 02:30:49;;;;;;;24.83;17.83;;;4.30;99.90;;;;;;5109643;28;20196;-82
2020/12/29 02:33:15;;;;;;;25.37;19.23;;;4.20;99.90;;;;;;5109113;28;20919;-84
2020/12/29 02:35:42;;;;;;;23.13;18.40;;;4.30;99.90;;;;;;5108489;28;20569;-82
2020/12/29 02:38:08;;;;;;;22.43;17.90;;;4.30;99.90;;;;;;5109541;28;20200;-82
2020/12/29 02:40:35;;;;;;;27.10;20.50;;;4.30;99.90;;;;;;5108088;28;20208;-83
2020/12/29 02:43:02;;;;;;;30.47;21.80;;;4.30;99.90;;;;;;5107428;28;20896;-83
2020/12/29 02:45:29;;;;;;;28.00;20.93;;;4.30;99.90;;;;;;5107757;28;20663;-81
2020/12/29 02:47:56;;;;;;;29.67;20.73;;;4.30;99.90;;;;;;5108288;28;20211;-80
2020/12/29 02:50:22;;;;;;;26.60;19.90;;;4.30;99.90;;;;;;5107409;28;20204;-81
2020/12/29 02:52:48;;;;;;;29.90;22.27;;;4.20;99.90;;;;;;5107839;28;20543;-82
2020/12/29 02:55:14;;;;;;;29.77;21.60;;;4.30;99.90;;;;;;5107647;28;20560;-80
2020/12/29 02:57:41;;;;;;;29.03;21.10;;;4.30;99.90;;;;;;5107330;28;20196;-85
2020/12/29 03:00:08;;;;;;;25.40;19.63;;;4.20;99.90;;;;;;5105742;28;20767;-80
2020/12/29 03:02:34;;;;;;;28.93;20.80;;;4.20;99.90;;;;;;5106761;28;20199;-82
2020/12/29 03:05:02;;;;;;;31.83;22.43;;;4.20;99.90;;;;;;5104917;28;20666;-80
2020/12/29 03:07:28;;;;;;;34.33;23.30;;;4.20;99.90;;;;;;5105149;28;20199;-79
2020/12/29 03:09:54;;;;;;;30.50;21.67;;;4.20;99.90;;;;;;5105854;28;20686;-81
2020/12/29 03:12:21;;;;;;;34.70;23.70;;;4.30;99.90;;;;;;5105673;28;20249;-78
2020/12/29 03:14:48;;;;;;;36.33;24.23;;;4.30;99.90;;;;;;5107031;28;20204;-81
2020/12/29 03:17:14;;;;;;;35.40;23.63;;;4.30;99.90;;;;;;5107032;28;20195;-79
2020/12/29 03:19:41;;;;;;;31.40;23.20;;;4.30;99.90;;;;;;5107970;28;20204;-84
2020/12/29 03:22:07;;;;;;;30.60;21.70;;;4.30;99.90;;;;;;5095429;28;20621;-79
2020/12/29 03:24:33;;;;;;;28.03;20.53;;;4.30;99.90;;;;;;5086402;28;20204;-81
2020/12/29 03:26:59;;;;;;;25.20;18.03;;;4.40;99.90;;;;;;5087792;28;20204;-82
2020/12/29 03:29:26;;;;;;;24.43;17.07;;;4.40;99.90;;;;;;5088705;28;20874;-82
2020/12/29 03:31:53;;;;;;;23.00;16.73;;;4.30;99.90;;;;;;5088269;28;20619;-84
2020/12/29 03:34:24;;;;;;;21.17;16.03;;;4.30;99.90;;;;;;5087458;28;20228;-83
2020/12/29 03:36:50;;;;;;;19.67;15.37;;;4.30;99.90;;;;;;5087600;28;20205;-84
2020/12/29 03:39:17;;;;;;;23.57;16.03;;;4.30;99.90;;;;;;5087204;28;20204;-81
2020/12/29 03:41:43;;;;;;;16.90;13.40;;;4.30;99.90;;;;;;5087527;28;20765;-82
2020/12/29 03:44:10;;;;;;;19.17;12.97;;;4.30;99.90;;;;;;5088316;28;20197;-80
2020/12/29 03:46:36;;;;;;;17.20;12.33;;;4.30;99.90;;;;;;5088470;28;20193;-83
2020/12/29 03:49:04;;;;;;;14.33;10.47;;;4.30;99.90;;;;;;5088073;28;20475;-85
2020/12/29 03:51:30;;;;;;;14.30;10.53;;;4.40;99.90;;;;;;5087783;28;20227;-84
2020/12/29 03:53:57;;;;;;;12.13;9.77;;;4.30;99.90;;;;;;5103115;28;20657;-80
2020/12/29 03:56:23;;;;;;;10.67;8.53;;;4.30;99.90;;;;;;5108533;28;20568;-83
2020/12/29 03:58:49;;;;;;;9.83;7.57;;;4.30;99.90;;;;;;5108319;28;20810;-83
2020/12/29 04:01:16;;;;;;;9.17;7.27;;;4.30;99.90;;;;;;5106877;28;20215;-82
2020/12/29 04:03:43;;;;;;;9.50;7.40;;;4.30;99.90;;;;;;5107419;28;20200;-81
2020/12/29 04:06:11;;;;;;;9.67;7.17;;;4.30;99.90;;;;;;5107794;28;20932;-83
2020/12/29 04:08:40;;;;;;;10.37;7.60;;;4.20;99.90;;;;;;5108160;28;20199;-79
2020/12/29 04:11:07;;;;;;;9.03;6.97;;;4.30;99.90;;;;;;5108826;28;20887;-84
2020/12/29 04:13:33;;;;;;;9.90;7.50;;;4.30;99.90;;;;;;5109452;28;20864;-82
2020/12/29 04:15:59;;;;;;;9.23;7.07;;;4.20;99.90;;;;;;5108628;28;20264;-83
2020/12/29 04:18:25;;;;;;;9.67;7.60;;;4.30;99.90;;;;;;5109703;28;20204;-83
2020/12/29 04:20:52;;;;;;;10.63;7.77;;;4.20;99.90;;;;;;5110400;28;20192;-85
2020/12/29 04:23:19;;;;;;;13.07;7.23;;;4.20;99.90;;;;;;5110272;28;20523;-84
2020/12/29 04:25:45;;;;;;;8.30;6.77;;;4.30;99.90;;;;;;5110521;28;20483;-84
2020/12/29 04:28:12;;;;;;;10.57;7.53;;;4.30;99.90;;;;;;5110528;28;20269;-85
2020/12/29 04:30:39;;;;;;;9.77;7.23;;;4.30;99.90;;;;;;5111050;28;20200;-84
2020/12/29 04:33:05;;;;;;;9.93;7.33;;;4.30;99.90;;;;;;5110608;28;20261;-85
2020/12/29 04:35:32;;;;;;;8.20;6.13;;;4.30;99.90;;;;;;5110979;28;20196;-85
2020/12/29 04:37:58;;;;;;;8.37;6.80;;;4.20;99.90;;;;;;5110437;28;20204;-85
2020/12/29 04:40:25;;;;;;;9.13;6.83;;;4.30;99.90;;;;;;5110800;28;20199;-81
2020/12/29 04:42:53;;;;;;;8.50;6.50;;;4.30;99.90;;;;;;5110198;28;20196;-85
2020/12/29 04:45:20;;;;;;;8.03;5.90;;;4.20;99.90;;;;;;5110857;28;20200;-83
2020/12/29 04:47:46;;;;;;;9.43;6.67;;;4.20;99.90;;;;;;5110841;28;20265;-84
2020/12/29 04:50:15;;;;;;;7.53;6.00;;;4.30;99.90;;;;;;5105767;28;20204;-80
2020/12/29 04:52:44;;;;;;;7.73;6.00;;;4.30;99.90;;;;;;5110067;28;20226;-85
2020/12/29 04:55:11;;;;;;;8.47;6.17;;;4.20;99.90;;;;;;5110841;28;20325;-85
2020/12/29 04:57:38;;;;;;;7.93;5.20;;;4.20;99.90;;;;;;5111567;28;20207;-85
2020/12/29 05:00:06;;;;;;;9.10;6.23;;;4.20;99.90;;;;;;5110934;28;20216;-84
2020/12/29 05:02:32;;;;;;;7.17;5.77;;;4.20;99.90;;;;;;5106914;28;20348;-81
2020/12/29 05:04:59;;;;;;;7.10;5.63;;;4.20;99.90;;;;;;5108266;28;20499;-85
2020/12/29 05:07:27;;;;;;;7.47;5.37;;;4.30;99.90;;;;;;5110718;28;20203;-84
2020/12/29 05:09:54;;;;;;;6.17;5.30;;;4.30;99.90;;;;;;5109947;28;20215;-84
2020/12/29 05:12:20;;;;;;;6.70;5.07;;;4.30;99.90;;;;;;5109895;28;20210;-85
2020/12/29 05:14:48;;;;;;;7.13;4.83;;;4.30;99.90;;;;;;5110660;28;20332;-84
2020/12/29 05:17:15;;;;;;;5.70;4.60;;;4.30;99.90;;;;;;5110230;28;20245;-84
2020/12/29 05:19:42;;;;;;;6.00;5.00;;;4.30;99.90;;;;;;5110491;28;20203;-84
2020/12/29 05:22:09;;;;;;;8.30;5.33;;;4.20;99.90;;;;;;5109323;28;20253;-85
2020/12/29 05:24:35;;;;;;;6.87;5.00;;;4.20;99.90;;;;;;5110203;28;20192;-85
2020/12/29 05:27:03;;;;;;;7.03;4.13;;;4.30;99.90;;;;;;5110690;28;20288;-85
2020/12/29 05:29:31;;;;;;;8.80;5.40;;;4.30;99.90;;;;;;5110326;28;20203;-85
2020/12/29 05:31:58;;;;;;;5.90;4.40;;;4.20;99.90;;;;;;5109396;28;20257;-83
2020/12/29 05:34:26;;;;;;;5.77;4.70;;;4.20;99.90;;;;;;5110451;28;20224;-85
2020/12/29 05:36:54;;;;;;;4.33;3.73;;;4.20;99.90;;;;;;5110039;28;20204;-83
2020/12/29 05:39:21;;;;;;;5.03;4.47;;;4.20;99.90;;;;;;5109384;28;20188;-85
2020/12/29 05:41:49;;;;;;;6.17;4.23;;;4.20;99.90;;;;;;5109884;28;20395;-86
2020/12/29 05:44:25;;;;;;;6.57;4.40;;;4.20;99.90;;;;;;5109552;28;20200;-84
2020/12/29 05:46:51;;;;;;;5.67;4.07;;;4.20;99.90;;;;;;5109805;28;20203;-85
2020/12/29 05:49:20;;;;;;;5.30;3.93;;;4.20;99.90;;;;;;5107682;28;20213;-85
2020/12/29 05:51:48;;;;;;;4.90;4.40;;;4.20;99.90;;;;;;5108576;28;20196;-85
2020/12/29 05:54:16;;;;;;;3.87;3.50;;;4.20;99.90;;;;;;5107941;28;20235;-82
2020/12/29 05:56:43;;;;;;;4.00;3.60;;;4.20;99.90;;;;;;5112224;28;20253;-84
2020/12/29 05:59:11;;;;;;;4.50;3.57;;;4.20;99.90;;;;;;5113161;28;20203;-84
2020/12/29 06:01:39;;;;;;;3.93;3.30;;;4.20;99.90;;;;;;5112222;28;20216;-84
2020/12/29 06:04:06;;;;;;;4.77;4.07;;;4.20;99.90;;;;;;5110980;28;20200;-85
2020/12/29 06:06:36;;;;;;;4.50;4.10;;;4.20;99.90;;;;;;5109830;28;20204;-83
2020/12/29 06:09:06;;;;;;;4.40;3.47;;;4.20;99.90;;;;;;5107649;28;20220;-82
2020/12/29 06:11:41;;;;;;;3.67;3.30;;;4.20;99.90;;;;;;5106980;28;20256;-81
2020/12/29 06:14:13;;;;;;;4.33;3.37;;;4.20;99.90;;;;;;5105530;28;20314;-78
2020/12/29 06:16:41;;;;;;;7.47;4.37;;;4.20;99.90;;;;;;5105832;28;20207;-79
2020/12/29 06:19:19;;;;;;;6.07;4.60;;;4.10;99.90;;;;;;5105967;28;20196;-79
2020/12/29 06:21:52;;;;;;;4.60;3.80;;;4.20;99.90;;;;;;5095066;28;20192;-78
2020/12/29 06:24:20;;;;;;;4.67;3.93;;;4.20;99.90;;;;;;5084773;28;20228;-80
2020/12/29 06:26:52;;;;;;;6.03;4.40;;;4.10;99.90;;;;;;5085252;28;20225;-80
2020/12/29 06:29:22;;;;;;;4.60;3.77;;;4.10;99.90;;;;;;5086113;28;20208;-78
2020/12/29 06:31:50;;;;;;;4.53;3.80;;;4.20;99.90;;;;;;5088148;28;20203;-79
2020/12/29 06:34:18;;;;;;;4.17;3.60;;;4.10;99.90;;;;;;5086641;28;20277;-78
2020/12/29 06:36:48;;;;;;;4.67;3.60;;;4.10;99.90;;;;;;5087695;28;20219;-80
2020/12/29 06:39:15;;;;;;;3.80;3.40;;;4.10;99.90;;;;;;5087270;28;20192;-82
2020/12/29 06:41:41;;;;;;;4.83;3.87;;;4.10;99.90;;;;;;5087524;28;20203;-80
2020/12/29 06:44:12;;;;;;;4.53;4.13;;;4.10;99.90;;;;;;5087102;28;20192;-81
2020/12/29 06:46:38;;;;;;;4.97;3.67;;;4.10;99.90;;;;;;5086962;28;20200;-80
2020/12/29 06:49:20;;;;;;;4.70;3.80;;;4.10;99.90;;;;;;5088056;28;20200;-85
2020/12/29 06:51:48;;;;;;;5.03;3.60;;;4.10;99.90;;;;;;5091679;28;20250;-84
2020/12/29 06:54:21;;;;;;;4.77;3.43;;;4.00;99.90;;;;;;5098618;28;20700;-85
2020/12/29 06:57:00;;;;;;;3.83;3.37;;;4.00;99.90;;;;;;5111371;28;20253;-84
2020/12/29 06:59:37;;;;;;;4.13;3.57;;;4.00;99.90;;;;;;5111616;28;20257;-81
2020/12/29 07:02:03;;;;;;;4.30;3.90;;;3.90;99.90;;;;;;5106732;28;20607;-78
2020/12/29 07:04:33;;;;;;;5.00;3.63;;;3.90;99.90;;;;;;5104617;28;20219;-79
2020/12/29 07:07:00;;;;;;;5.17;3.60;;;3.90;99.90;;;;;;5105434;28;20196;-78
2020/12/29 07:09:27;;;;;;;5.10;4.30;;;3.80;99.90;;;;;;5105197;28;20266;-79
2020/12/29 07:12:11;;;;;;;4.83;4.40;;;3.80;99.90;;;;;;5105030;28;20212;-78
2020/12/29 07:14:37;;;;;;;4.60;3.87;;;3.70;99.90;;;;;;5105103;28;20690;-79
2020/12/29 07:17:07;;;;;;;5.03;3.80;;;3.70;99.90;;;;;;5104418;28;20553;-80
2020/12/29 07:19:38;;;;;;;4.80;4.27;;;3.70;99.90;;;;;;5104551;28;20207;-78
2020/12/29 07:22:15;;;;;;;4.40;4.00;;;3.70;99.90;;;;;;5104365;28;20212;-78
2020/12/29 07:24:42;;;;;;;6.17;4.50;;;3.60;99.90;;;;;;5104585;28;20968;-79
2020/12/29 07:27:11;;;;;;;4.97;4.33;;;3.60;99.90;;;;;;5104951;28;20200;-80
2020/12/29 07:29:50;;;;;;;4.70;4.20;;;3.60;99.90;;;;;;5105208;28;20793;-78
2020/12/29 07:32:18;;;;;;;4.73;4.17;;;3.60;99.90;;;;;;5104630;28;20196;-79
2020/12/29 07:34:47;;;;;;;5.87;4.33;;;3.60;99.90;;;;;;5105140;28;20234;-78
2020/12/29 07:37:15;;;;;;;5.00;4.40;;;3.50;99.90;;;;;;5105140;28;20214;-77
2020/12/29 07:39:43;;;;;;;5.97;4.43;;;3.50;99.90;;;;;;5104524;28;20200;-78
2020/12/29 07:42:12;;;;;;;5.33;4.77;;;3.50;99.90;;;;;;5105148;28;20829;-79
2020/12/29 07:44:38;;;;;;;5.97;5.27;;;3.50;99.90;;;;;;5103719;28;20253;-79
2020/12/29 07:47:04;;;;;;;5.73;4.97;;;3.50;99.90;;;;;;5104375;28;20563;-77
2020/12/29 07:49:31;;;;;;;5.57;4.87;;;3.50;99.90;;;;;;5104858;28;20744;-81
2020/12/29 07:51:57;;;;;;;5.20;4.63;;;3.50;99.90;;;;;;5104364;28;20578;-79
2020/12/29 07:54:24;;;;;;;5.17;4.60;;;3.50;99.90;;;;;;5104421;28;20255;-79
2020/12/29 07:56:51;;;;;;;7.50;5.37;;;3.50;99.90;;;;;;5104585;28;20207;-79
2020/12/29 07:59:18;;;;;;;7.23;5.40;;;3.50;99.90;;;;;;5105052;28;20212;-79
2020/12/29 08:01:52;;;;;;;6.00;4.97;;;3.50;99.90;;;;;;5106777;28;20302;-80
2020/12/29 08:04:25;;;;;;;6.17;5.20;;;3.50;99.90;;;;;;5106218;28;21056;-81
2020/12/29 08:06:51;;;;;;;7.20;5.80;;;3.50;99.90;;;;;;5106137;28;20251;-80
2020/12/29 08:09:18;;;;;;;6.40;4.50;;;3.40;99.90;;;;;;5104840;28;20733;-81
2020/12/29 08:11:45;;;;;;;5.87;5.27;;;3.40;99.90;;;;;;5107642;28;20192;-84
2020/12/29 08:14:12;;;;;;;6.93;5.50;;;3.40;99.90;;;;;;5110043;28;20292;-85
2020/12/29 08:16:38;;;;;;;6.97;4.90;;;3.40;99.90;;;;;;5109439;28;20180;-81
2020/12/29 08:19:09;;;;;;;7.03;5.63;;;3.40;99.90;;;;;;5102361;28;20256;-82
2020/12/29 08:21:37;;;;;;;7.07;5.53;;;3.40;99.90;;;;;;5087132;28;20197;-83
2020/12/29 08:24:04;;;;;;;5.23;4.70;;;3.50;99.90;;;;;;5089777;28;20678;-82
2020/12/29 08:29:18;;;;;;;6.23;4.77;;;3.50;99.90;;;;;;5078937;28;20663;-89
2020/12/29 08:49:28;;;;;;;11.47;6.90;;;3.80;99.90;;;;;;4869987;29;20246;-86
2020/12/29 08:51:55;;;;;;;9.70;6.83;;;3.80;99.90;;;;;;4932021;28;20229;-89
2020/12/29 08:54:23;;;;;;;9.07;6.87;;;3.80;99.90;;;;;;5036293;28;20680;-87
2020/12/29 08:56:49;;;;;;;7.50;5.83;;;3.80;99.90;;;;;;5046393;28;20201;-86
2020/12/29 08:59:17;;;;;;;9.63;7.13;;;3.90;99.90;;;;;;5044797;28;20206;-87
2020/12/29 09:01:44;;;;;;;10.97;7.27;;;3.90;99.90;;;;;;5045445;28;20337;-87
2020/12/29 09:04:26;;;;;;;10.10;7.57;;;3.90;99.90;;;;;;5047075;28;20194;-86
2020/12/29 09:07:00;;;;;;;12.47;7.53;;;4.00;99.90;;;;;;5048267;28;20206;-88
2020/12/29 09:09:27;;;;;;;12.13;8.47;;;4.00;99.90;;;;;;5046539;28;20212;-84
2020/12/29 09:12:13;;;;;;;14.47;9.03;;;4.00;99.90;;;;;;5047603;28;20213;-85
2020/12/29 09:14:50;;;;;;;12.13;8.10;;;4.10;99.90;;;;;;5047991;28;20210;-83
2020/12/29 09:17:17;;;;;;;11.03;8.00;;;4.20;99.90;;;;;;5047756;28;20564;-86
2020/12/29 09:20:11;;;;;;;10.00;7.30;;;4.20;99.90;;;;;;5047921;28;20289;-85
2020/12/29 09:22:51;;;;;;;10.37;7.27;;;4.20;99.90;;;;;;5047695;28;20313;-84
2020/12/29 09:25:31;;;;;;;9.13;6.90;;;4.30;99.90;;;;;;5047225;28;20209;-84
2020/12/29 09:28:15;;;;;;;9.33;6.33;;;4.30;99.90;;;;;;5047826;28;20193;-84
2020/12/29 09:30:42;;;;;;;8.43;5.83;;;4.40;99.90;;;;;;5051120;28;20620;-83
2020/12/29 09:33:08;;;;;;;7.60;5.70;;;4.40;99.90;;;;;;5050454;28;20652;-83
2020/12/29 09:35:36;;;;;;;8.37;5.33;;;4.50;99.90;;;;;;5048350;28;20217;-84
2020/12/29 09:38:04;;;;;;;8.10;4.30;;;4.50;99.90;;;;;;5044458;28;20201;-83
2020/12/29 09:40:30;;;;;;;10.10;5.53;;;4.60;99.90;;;;;;5048912;28;20210;-83
2020/12/29 09:42:57;;;;;;;5.47;4.33;;;4.60;99.90;;;;;;5050721;28;20222;-82
2020/12/29 09:45:25;;;;;;;5.83;3.90;;;4.60;99.90;;;;;;5078627;28;20290;-82
2020/12/29 09:47:52;;;;;;;8.53;4.53;;;4.70;99.90;;;;;;5127592;22;20242;-83
2020/12/29 09:50:19;;;;;;;5.80;3.90;;;4.70;99.90;;;;;;5133256;27;20215;-83
2020/12/29 09:52:46;;;;;;;7.57;3.80;;;4.70;99.90;;;;;;5132467;27;20256;-83
2020/12/29 09:55:12;;;;;;;7.60;4.40;;;4.70;99.90;;;;;;5133955;27;20206;-84
2020/12/29 09:57:39;;;;;;;7.80;4.80;;;4.80;99.90;;;;;;5133757;27;20195;-83
2020/12/29 10:00:05;;;;;;;6.00;4.20;;;4.80;99.90;;;;;;5126650;27;20212;-83
2020/12/29 10:02:32;;;;;;;7.67;4.80;;;4.90;99.90;;;;;;5114086;28;20206;-84
2020/12/29 10:04:58;;;;;;;7.33;4.10;;;4.90;99.90;;;;;;5112901;28;20206;-83
2020/12/29 10:07:24;;;;;;;8.27;4.43;;;4.90;99.90;;;;;;5112230;28;20272;-84
2020/12/29 10:09:52;;;;;;;6.37;4.40;;;4.90;99.90;;;;;;5113217;28;20211;-84
2020/12/29 10:12:18;;;;;;;6.30;4.43;;;5.00;99.90;;;;;;5112401;28;20219;-84
2020/12/29 10:14:44;;;;;;;6.77;4.43;;;5.00;99.90;;;;;;5112378;28;20621;-83
2020/12/29 10:17:10;;;;;;;6.27;4.50;;;5.00;99.90;;;;;;5111945;28;20200;-82
2020/12/29 10:19:37;;;;;;;6.27;4.80;;;5.00;99.90;;;;;;5110696;28;20214;-81
2020/12/29 10:22:03;;;;;;;6.80;5.30;;;5.10;99.90;;;;;;5112607;28;20211;-83
2020/12/29 10:24:30;;;;;;;9.13;5.37;;;5.10;99.90;;;;;;5112869;28;20203;-84
2020/12/29 10:26:58;;;;;;;6.30;4.87;;;5.10;99.90;;;;;;5112640;28;20195;-84
2020/12/29 10:29:25;;;;;;;6.70;4.57;;;5.20;99.90;;;;;;5113707;28;20199;-85
2020/12/29 10:31:52;;;;;;;8.70;4.43;;;5.20;99.90;;;;;;5112880;28;20200;-88
2020/12/29 10:34:18;;;;;;;6.67;4.20;;;5.20;99.90;;;;;;5112197;28;20873;-87
2020/12/29 10:36:46;;;;;;;7.47;4.43;;;5.20;99.90;;;;;;5114089;28;20225;-86
2020/12/29 10:39:15;;;;;;;8.00;4.70;;;5.30;99.90;;;;;;5113519;28;20203;-86
2020/12/29 10:41:42;;;;;;;6.53;4.87;;;5.30;99.90;;;;;;5111940;28;20245;-86
2020/12/29 10:44:10;;;;;;;8.77;5.27;;;5.30;99.90;;;;;;5113501;28;20249;-88
2020/12/29 10:46:37;;;;;;;7.73;4.67;;;5.30;99.90;;;;;;5112934;28;20228;-87
2020/12/29 10:49:03;;;;;;;5.63;4.93;;;5.40;99.90;;;;;;5111969;28;20820;-88
2020/12/29 10:51:30;;;;;;;5.73;4.43;;;5.40;99.90;;;;;;5113086;28;20207;-85
2020/12/29 10:53:56;;;;;;;6.33;4.33;;;5.40;99.90;;;;;;5113123;28;20234;-86
2020/12/29 10:56:22;;;;;;;7.23;5.10;;;5.40;99.90;;;;;;5112154;28;20207;-82
2020/12/29 10:58:49;;;;;;;7.70;5.60;;;5.50;99.90;;;;;;5113095;28;20456;-86
2020/12/29 11:01:22;;;;;;;8.13;6.17;;;5.50;99.90;;;;;;5110551;28;20237;-83
2020/12/29 11:03:49;;;;;;;9.00;6.50;;;5.50;99.90;;;;;;5107108;28;20422;-84
2020/12/29 11:06:16;;;;;;;8.57;6.60;;;5.50;99.90;;;;;;5106154;28;20188;-83
2020/12/29 11:08:43;;;;;;;11.57;7.93;;;5.50;99.90;;;;;;5106244;28;20200;-79
2020/12/29 11:11:10;;;;;;;12.73;7.90;;;5.50;99.90;;;;;;5111966;28;20212;-84
2020/12/29 11:13:36;;;;;;;12.43;7.67;;;5.50;99.90;;;;;;5111932;28;20238;-83
2020/12/29 11:16:04;;;;;;;10.23;7.20;;;5.60;99.90;;;;;;5112122;28;20208;-80
2020/12/29 11:21:07;;;;;;;7.80;6.30;;;5.50;99.90;;;;;;5177206;22;20645;-85
2020/12/29 11:23:33;;;;;;;9.77;6.40;;;5.40;99.90;;;;;;5071154;28;20255;-88
2020/12/29 11:25:59;;;;;;;9.00;5.53;;;5.40;99.90;;;;;;5071797;28;20205;-86
2020/12/29 11:28:26;;;;;;;6.20;4.20;;;5.40;99.90;;;;;;5071946;28;20675;-86
2020/12/29 11:30:52;;;;;;;5.97;3.97;;;5.30;99.90;;;;;;5071670;28;20624;-88
2020/12/29 11:33:19;;;;;;;5.77;3.77;;;5.30;99.90;;;;;;5071537;28;20283;-87
2020/12/29 11:35:47;;;;;;;6.43;4.63;;;5.20;99.90;;;;;;5069769;28;20244;-87
2020/12/29 11:38:15;;;;;;;3.20;2.20;;;5.20;99.90;;;;;;5074235;28;20213;-89
2020/12/29 11:40:41;;;;;;;2.20;1.63;;;5.30;99.90;;;;;;5076375;28;20605;-85
2020/12/29 11:43:08;;;;;;;3.37;1.40;;;5.20;99.90;;;;;;5072189;28;20204;-87
2020/12/29 11:45:34;;;;;;;2.90;1.73;;;5.10;99.90;;;;;;5071637;28;20205;-88
2020/12/29 11:48:00;;;;;;;2.40;1.77;;;4.90;99.90;;;;;;5069735;28;20201;-86
2020/12/29 11:50:27;;;;;;;3.13;1.37;;;4.90;99.90;;;;;;5065942;28;20205;-87
2020/12/29 11:52:53;;;;;;;2.13;1.23;;;4.80;99.90;;;;;;5063715;28;20197;-87
2020/12/29 11:55:20;;;;;;;1.73;1.40;;;4.70;99.90;;;;;;5065505;28;20229;-87
2020/12/29 11:57:47;;;;;;;3.40;1.77;;;4.50;99.90;;;;;;5065363;28;20189;-88
2020/12/29 12:00:13;;;;;;;2.37;2.03;;;4.50;99.90;;;;;;5070113;28;20228;-92
2020/12/29 12:02:39;;;;;;;3.37;2.33;;;4.40;99.90;;;;;;5071460;28;20616;-88
2020/12/29 12:05:05;;;;;;;1.87;1.63;;;4.30;99.90;;;;;;5070696;28;20202;-93
2020/12/29 12:07:32;;;;;;;1.93;1.50;;;4.40;99.90;;;;;;5072265;28;20212;-94
2020/12/29 12:09:58;;;;;;;2.60;1.53;;;4.30;99.90;;;;;;5071019;28;20201;-84
2020/12/29 12:12:25;;;;;;;13.50;6.30;;;4.30;99.90;;;;;;5068342;28;20209;-85
2020/12/29 12:14:51;;;;;;;9.67;4.23;;;4.30;99.90;;;;;;5063679;28;20240;-82
2020/12/29 12:17:18;;;;;;;3.70;2.63;;;4.30;99.90;;;;;;5063402;28;20236;-81
2020/12/29 12:19:44;;;;;;;3.90;2.53;;;4.30;99.90;;;;;;5064186;28;20242;-90
2020/12/29 12:22:10;;;;;;;1.80;1.60;;;4.40;99.90;;;;;;5064080;28;20212;-83
2020/12/29 12:24:36;;;;;;;2.10;1.90;;;4.50;99.90;;;;;;5063037;28;20209;-86
2020/12/29 12:27:03;;;;;;;3.77;1.90;;;4.50;99.90;;;;;;5063724;28;20267;-84
2020/12/29 12:29:30;;;;;;;2.90;2.50;;;4.50;99.90;;;;;;5063660;28;20860;-86
2020/12/29 12:31:56;;;;;;;4.77;2.90;;;4.60;99.90;;;;;;5063873;28;20220;-83
2020/12/29 12:34:23;;;;;;;3.53;3.20;;;4.60;99.90;;;;;;5062709;28;20225;-82
2020/12/29 12:36:51;;;;;;;2.80;2.37;;;4.70;99.90;;;;;;5063794;28;20221;-83
2020/12/29 12:39:18;;;;;;;4.43;2.67;;;4.70;99.90;;;;;;5064895;28;20201;-83
2020/12/29 12:41:44;;;;;;;6.40;2.60;;;4.80;99.90;;;;;;5063586;28;20212;-83
2020/12/29 12:44:11;;;;;;;4.87;3.50;;;4.80;99.90;;;;;;5064610;28;20516;-83
2020/12/29 12:46:41;;;;;;;6.40;4.10;;;4.80;99.90;;;;;;5065926;28;20209;-82
2020/12/29 12:49:07;;;;;;;8.97;3.73;;;4.90;99.90;;;;;;5063855;28;20249;-81
2020/12/29 12:51:33;;;;;;;5.03;3.07;;;5.00;99.90;;;;;;5064077;28;20209;-81
2020/12/29 12:54:00;;;;;;;5.90;4.50;;;5.10;99.90;;;;;;5064059;28;20232;-81
2020/12/29 12:56:28;;;;;;;5.37;3.90;;;5.00;99.90;;;;;;5064684;28;20274;-80
2020/12/29 12:58:54;;;;;;;3.67;3.23;;;5.10;99.90;;;;;;5062701;28;20216;-83
2020/12/29 13:01:21;;;;;;;5.43;2.50;;;5.20;99.90;;;;;;5063901;28;20891;-80
2020/12/29 13:03:48;;;;;;;7.00;3.07;;;5.20;99.90;;;;;;5063566;28;20241;-82
2020/12/29 13:06:22;;;;;;;4.30;1.90;;;5.30;99.90;;;;;;5064945;28;20212;-82
2020/12/29 13:08:48;;;;;;;4.10;2.83;;;5.40;99.90;;;;;;5063553;28;20204;-80
2020/12/29 13:11:14;;;;;;;4.17;3.10;;;5.40;99.90;;;;;;5064498;28;20213;-81
2020/12/29 13:13:41;;;;;;;2.87;2.13;;;5.40;99.90;;;;;;5046701;28;20670;-80
2020/12/29 13:16:08;;;;;;;4.53;2.23;;;5.40;99.90;;;;;;5062551;28;20984;-80